sensor_id;sensor_type;location;lat;lon;timestamp;P1;durP1;ratioP1;P2;durP2;ratioP2
9294;SDS011;4686;44.496;11.324;2023-04-01T00:00:05;18.43;;;8.60;;
9294;SDS011;4686;44.496;11.324;2023-04-01T00:02:33;13.27;;;8.00;;
9294;SDS011;4686;44.496;11.324;2023-04-01T00:05:01;9.77;;;7.53;;
9294;SDS011;4686;44.496;11.324;2023-04-01T00:07:28;8.60;;;7.70;;
9294;SDS011;4686;44.496;11.324;2023-04-01T00:09:56;9.43;;;7.80;;
9294;SDS011;4686;44.496;11.324;2023-04-01T00:12:24;9.60;;;7.70;;
9294;SDS011;4686;44.496;11.324;2023-04-01T00:14:52;7.20;;;6.50;;
9294;SDS011;4686;44.496;11.324;2023-04-01T00:17:19;7.87;;;7.00;;
9294;SDS011;4686;44.496;11.324;2023-04-01T00:19:46;7.20;;;6.60;;
9294;SDS011;4686;44.496;11.324;2023-04-01T00:22:14;9.70;;;7.60;;
9294;SDS011;4686;44.496;11.324;2023-04-01T00:24:41;9.13;;;7.27;;
9294;SDS011;4686;44.496;11.324;2023-04-01T00:27:09;8.37;;;7.57;;
9294;SDS011;4686;44.496;11.324;2023-04-01T00:29:37;10.80;;;7.77;;
9294;SDS011;4686;44.496;11.324;2023-04-01T00:32:05;10.80;;;8.87;;
9294;SDS011;4686;44.496;11.324;2023-04-01T00:34:32;11.50;;;9.10;;
9294;SDS011;4686;44.496;11.324;2023-04-01T00:36:59;10.20;;;8.03;;
9294;SDS011;4686;44.496;11.324;2023-04-01T00:39:28;7.43;;;6.83;;
9294;SDS011;4686;44.496;11.324;2023-04-01T00:41:55;8.73;;;7.93;;
9294;SDS011;4686;44.496;11.324;2023-04-01T00:44:23;11.67;;;7.37;;
9294;SDS011;4686;44.496;11.324;2023-04-01T00:46:52;11.13;;;8.80;;
9294;SDS011;4686;44.496;11.324;2023-04-01T00:49:21;18.63;;;9.23;;
9294;SDS011;4686;44.496;11.324;2023-04-01T00:51:50;54.23;;;13.00;;
9294;SDS011;4686;44.496;11.324;2023-04-01T00:54:17;28.53;;;11.07;;
9294;SDS011;4686;44.496;11.324;2023-04-01T00:56:46;28.70;;;11.57;;
9294;SDS011;4686;44.496;11.324;2023-04-01T00:59:16;16.50;;;10.37;;
9294;SDS011;4686;44.496;11.324;2023-04-01T01:01:45;16.33;;;10.63;;
9294;SDS011;4686;44.496;11.324;2023-04-01T01:04:22;11.60;;;10.40;;
9294;SDS011;4686;44.496;11.324;2023-04-01T01:06:50;11.80;;;10.50;;
9294;SDS011;4686;44.496;11.324;2023-04-01T01:09:25;13.67;;;11.60;;
9294;SDS011;4686;44.496;11.324;2023-04-01T01:11:54;16.03;;;13.27;;
9294;SDS011;4686;44.496;11.324;2023-04-01T01:14:31;15.70;;;13.00;;
9294;SDS011;4686;44.496;11.324;2023-04-01T01:17:02;16.07;;;13.30;;
9294;SDS011;4686;44.496;11.324;2023-04-01T01:19:40;20.30;;;15.73;;
9294;SDS011;4686;44.496;11.324;2023-04-01T01:22:21;20.80;;;15.60;;
9294;SDS011;4686;44.496;11.324;2023-04-01T01:24:52;17.80;;;15.90;;
9294;SDS011;4686;44.496;11.324;2023-04-01T01:27:21;19.60;;;17.43;;
9294;SDS011;4686;44.496;11.324;2023-04-01T01:29:56;24.87;;;18.23;;
9294;SDS011;4686;44.496;11.324;2023-04-01T01:32:31;20.23;;;17.07;;
9294;SDS011;4686;44.496;11.324;2023-04-01T01:35:09;22.20;;;17.60;;
9294;SDS011;4686;44.496;11.324;2023-04-01T01:37:39;20.53;;;17.50;;
9294;SDS011;4686;44.496;11.324;2023-04-01T01:40:09;20.90;;;18.13;;
9294;SDS011;4686;44.496;11.324;2023-04-01T01:42:38;24.60;;;18.37;;
9294;SDS011;4686;44.496;11.324;2023-04-01T01:45:06;21.17;;;18.07;;
9294;SDS011;4686;44.496;11.324;2023-04-01T01:47:35;27.03;;;18.23;;
9294;SDS011;4686;44.496;11.324;2023-04-01T01:50:05;22.10;;;17.20;;
9294;SDS011;4686;44.496;11.324;2023-04-01T01:52:35;28.73;;;17.67;;
9294;SDS011;4686;44.496;11.324;2023-04-01T01:55:02;28.23;;;18.67;;
9294;SDS011;4686;44.496;11.324;2023-04-01T01:57:30;28.00;;;19.23;;
9294;SDS011;4686;44.496;11.324;2023-04-01T01:59:59;31.00;;;18.80;;
9294;SDS011;4686;44.496;11.324;2023-04-01T02:02:28;24.83;;;18.70;;
9294;SDS011;4686;44.496;11.324;2023-04-01T02:04:56;22.97;;;19.37;;
9294;SDS011;4686;44.496;11.324;2023-04-01T02:07:24;27.40;;;20.83;;
9294;SDS011;4686;44.496;11.324;2023-04-01T02:09:55;32.40;;;20.00;;
9294;SDS011;4686;44.496;11.324;2023-04-01T02:12:22;26.13;;;20.33;;
9294;SDS011;4686;44.496;11.324;2023-04-01T02:14:52;22.23;;;18.57;;
9294;SDS011;4686;44.496;11.324;2023-04-01T02:17:20;28.77;;;20.17;;
9294;SDS011;4686;44.496;11.324;2023-04-01T02:19:48;24.60;;;18.43;;
9294;SDS011;4686;44.496;11.324;2023-04-01T02:22:18;25.03;;;18.27;;
9294;SDS011;4686;44.496;11.324;2023-04-01T02:24:47;20.67;;;17.37;;
9294;SDS011;4686;44.496;11.324;2023-04-01T02:27:17;21.67;;;18.70;;
9294;SDS011;4686;44.496;11.324;2023-04-01T02:29:45;27.47;;;19.83;;
9294;SDS011;4686;44.496;11.324;2023-04-01T02:32:13;29.27;;;19.43;;
9294;SDS011;4686;44.496;11.324;2023-04-01T02:34:41;25.80;;;18.83;;
9294;SDS011;4686;44.496;11.324;2023-04-01T02:37:10;25.10;;;20.93;;
9294;SDS011;4686;44.496;11.324;2023-04-01T02:39:37;29.83;;;19.93;;
9294;SDS011;4686;44.496;11.324;2023-04-01T02:42:04;26.10;;;20.23;;
9294;SDS011;4686;44.496;11.324;2023-04-01T02:44:33;24.60;;;20.87;;
9294;SDS011;4686;44.496;11.324;2023-04-01T02:47:01;26.67;;;20.23;;
9294;SDS011;4686;44.496;11.324;2023-04-01T02:49:28;25.43;;;19.60;;
9294;SDS011;4686;44.496;11.324;2023-04-01T02:51:55;24.77;;;18.13;;
9294;SDS011;4686;44.496;11.324;2023-04-01T02:54:22;20.33;;;18.23;;
9294;SDS011;4686;44.496;11.324;2023-04-01T02:56:50;26.37;;;18.00;;
9294;SDS011;4686;44.496;11.324;2023-04-01T02:59:17;20.83;;;17.90;;
9294;SDS011;4686;44.496;11.324;2023-04-01T03:01:45;27.30;;;20.20;;
9294;SDS011;4686;44.496;11.324;2023-04-01T03:04:13;31.00;;;21.00;;
9294;SDS011;4686;44.496;11.324;2023-04-01T03:06:40;24.73;;;19.77;;
9294;SDS011;4686;44.496;11.324;2023-04-01T03:09:07;26.40;;;19.50;;
9294;SDS011;4686;44.496;11.324;2023-04-01T03:11:35;21.43;;;17.50;;
9294;SDS011;4686;44.496;11.324;2023-04-01T03:14:02;25.23;;;18.27;;
9294;SDS011;4686;44.496;11.324;2023-04-01T03:16:30;24.03;;;19.97;;
9294;SDS011;4686;44.496;11.324;2023-04-01T03:18:58;25.17;;;18.77;;
9294;SDS011;4686;44.496;11.324;2023-04-01T03:21:27;22.60;;;18.70;;
9294;SDS011;4686;44.496;11.324;2023-04-01T03:23:54;27.00;;;17.47;;
9294;SDS011;4686;44.496;11.324;2023-04-01T03:26:22;19.00;;;16.67;;
9294;SDS011;4686;44.496;11.324;2023-04-01T03:28:49;19.70;;;14.70;;
9294;SDS011;4686;44.496;11.324;2023-04-01T03:31:17;17.63;;;15.17;;
9294;SDS011;4686;44.496;11.324;2023-04-01T03:33:44;20.27;;;14.63;;
9294;SDS011;4686;44.496;11.324;2023-04-01T03:36:12;20.23;;;16.20;;
9294;SDS011;4686;44.496;11.324;2023-04-01T03:38:40;17.23;;;15.43;;
9294;SDS011;4686;44.496;11.324;2023-04-01T03:41:13;18.23;;;14.20;;
9294;SDS011;4686;44.496;11.324;2023-04-01T03:43:40;15.83;;;14.17;;
9294;SDS011;4686;44.496;11.324;2023-04-01T03:46:07;20.67;;;14.80;;
9294;SDS011;4686;44.496;11.324;2023-04-01T03:48:34;22.17;;;14.30;;
9294;SDS011;4686;44.496;11.324;2023-04-01T03:51:05;24.70;;;15.50;;
9294;SDS011;4686;44.496;11.324;2023-04-01T03:53:34;18.27;;;15.43;;
9294;SDS011;4686;44.496;11.324;2023-04-01T03:56:03;21.47;;;14.93;;
9294;SDS011;4686;44.496;11.324;2023-04-01T03:58:30;20.53;;;16.20;;
9294;SDS011;4686;44.496;11.324;2023-04-01T04:00:58;14.73;;;12.97;;
9294;SDS011;4686;44.496;11.324;2023-04-01T04:03:25;18.80;;;14.50;;
9294;SDS011;4686;44.496;11.324;2023-04-01T04:05:53;16.17;;;13.47;;
9294;SDS011;4686;44.496;11.324;2023-04-01T04:08:21;15.80;;;14.10;;
9294;SDS011;4686;44.496;11.324;2023-04-01T04:10:55;24.90;;;16.90;;
9294;SDS011;4686;44.496;11.324;2023-04-01T04:13:22;23.80;;;16.67;;
9294;SDS011;4686;44.496;11.324;2023-04-01T04:15:50;23.47;;;14.60;;
9294;SDS011;4686;44.496;11.324;2023-04-01T04:18:17;14.80;;;12.70;;
9294;SDS011;4686;44.496;11.324;2023-04-01T04:20:44;12.53;;;11.23;;
9294;SDS011;4686;44.496;11.324;2023-04-01T04:23:13;10.43;;;8.93;;
9294;SDS011;4686;44.496;11.324;2023-04-01T04:25:40;9.57;;;8.67;;
9294;SDS011;4686;44.496;11.324;2023-04-01T04:28:09;10.07;;;7.80;;
9294;SDS011;4686;44.496;11.324;2023-04-01T04:30:36;10.60;;;9.53;;
9294;SDS011;4686;44.496;11.324;2023-04-01T04:33:03;11.20;;;8.47;;
9294;SDS011;4686;44.496;11.324;2023-04-01T04:35:31;11.63;;;9.17;;
9294;SDS011;4686;44.496;11.324;2023-04-01T04:37:58;16.63;;;8.93;;
9294;SDS011;4686;44.496;11.324;2023-04-01T04:40:26;15.50;;;10.33;;
9294;SDS011;4686;44.496;11.324;2023-04-01T04:42:53;12.77;;;10.50;;
9294;SDS011;4686;44.496;11.324;2023-04-01T04:45:22;14.93;;;10.60;;
9294;SDS011;4686;44.496;11.324;2023-04-01T04:47:49;12.73;;;11.17;;
9294;SDS011;4686;44.496;11.324;2023-04-01T04:50:16;11.03;;;9.90;;
9294;SDS011;4686;44.496;11.324;2023-04-01T04:52:43;10.17;;;9.17;;
9294;SDS011;4686;44.496;11.324;2023-04-01T04:55:11;11.17;;;9.97;;
9294;SDS011;4686;44.496;11.324;2023-04-01T04:57:40;11.50;;;8.70;;
9294;SDS011;4686;44.496;11.324;2023-04-01T05:00:07;12.50;;;8.90;;
9294;SDS011;4686;44.496;11.324;2023-04-01T05:02:36;11.70;;;8.90;;
9294;SDS011;4686;44.496;11.324;2023-04-01T05:05:04;14.03;;;9.07;;
9294;SDS011;4686;44.496;11.324;2023-04-01T05:07:31;15.30;;;9.70;;
9294;SDS011;4686;44.496;11.324;2023-04-01T05:09:59;16.10;;;8.53;;
9294;SDS011;4686;44.496;11.324;2023-04-01T05:12:27;12.40;;;9.23;;
9294;SDS011;4686;44.496;11.324;2023-04-01T05:14:54;9.40;;;8.00;;
9294;SDS011;4686;44.496;11.324;2023-04-01T05:17:21;9.60;;;7.77;;
9294;SDS011;4686;44.496;11.324;2023-04-01T05:19:50;9.50;;;8.60;;
9294;SDS011;4686;44.496;11.324;2023-04-01T05:22:17;8.43;;;7.53;;
9294;SDS011;4686;44.496;11.324;2023-04-01T05:24:45;9.90;;;7.90;;
9294;SDS011;4686;44.496;11.324;2023-04-01T05:27:12;7.93;;;7.20;;
9294;SDS011;4686;44.496;11.324;2023-04-01T05:29:40;10.17;;;7.87;;
9294;SDS011;4686;44.496;11.324;2023-04-01T05:32:07;7.50;;;6.90;;
9294;SDS011;4686;44.496;11.324;2023-04-01T05:34:34;7.27;;;6.57;;
9294;SDS011;4686;44.496;11.324;2023-04-01T05:37:03;6.43;;;5.80;;
9294;SDS011;4686;44.496;11.324;2023-04-01T05:39:30;7.20;;;6.50;;
9294;SDS011;4686;44.496;11.324;2023-04-01T05:41:57;8.47;;;6.37;;
9294;SDS011;4686;44.496;11.324;2023-04-01T05:44:24;6.97;;;6.27;;
9294;SDS011;4686;44.496;11.324;2023-04-01T05:46:52;6.73;;;5.87;;
9294;SDS011;4686;44.496;11.324;2023-04-01T05:49:19;7.83;;;6.37;;
9294;SDS011;4686;44.496;11.324;2023-04-01T05:51:46;7.93;;;6.20;;
9294;SDS011;4686;44.496;11.324;2023-04-01T05:54:15;6.60;;;5.97;;
9294;SDS011;4686;44.496;11.324;2023-04-01T05:56:42;6.70;;;6.10;;
9294;SDS011;4686;44.496;11.324;2023-04-01T05:59:10;6.60;;;6.00;;
9294;SDS011;4686;44.496;11.324;2023-04-01T06:01:37;9.53;;;6.03;;
9294;SDS011;4686;44.496;11.324;2023-04-01T06:04:05;6.10;;;5.70;;
9294;SDS011;4686;44.496;11.324;2023-04-01T06:06:32;8.70;;;6.93;;
9294;SDS011;4686;44.496;11.324;2023-04-01T06:09:04;6.27;;;5.60;;
9294;SDS011;4686;44.496;11.324;2023-04-01T06:11:37;6.97;;;6.27;;
9294;SDS011;4686;44.496;11.324;2023-04-01T06:14:10;9.50;;;6.33;;
9294;SDS011;4686;44.496;11.324;2023-04-01T06:16:42;10.50;;;6.93;;
9294;SDS011;4686;44.496;11.324;2023-04-01T06:19:17;8.97;;;7.37;;
9294;SDS011;4686;44.496;11.324;2023-04-01T06:22:03;8.13;;;7.13;;
9294;SDS011;4686;44.496;11.324;2023-04-01T06:24:42;8.13;;;7.43;;
9294;SDS011;4686;44.496;11.324;2023-04-01T06:27:15;7.17;;;6.50;;
9294;SDS011;4686;44.496;11.324;2023-04-01T06:29:54;7.70;;;6.90;;
9294;SDS011;4686;44.496;11.324;2023-04-01T06:32:42;6.73;;;6.03;;
9294;SDS011;4686;44.496;11.324;2023-04-01T06:35:20;6.67;;;6.00;;
9294;SDS011;4686;44.496;11.324;2023-04-01T06:37:57;10.30;;;7.00;;
9294;SDS011;4686;44.496;11.324;2023-04-01T06:43:17;10.43;;;6.27;;
9294;SDS011;4686;44.496;11.324;2023-04-01T06:45:48;6.70;;;6.10;;
9294;SDS011;4686;44.496;11.324;2023-04-01T06:48:23;10.03;;;6.07;;
9294;SDS011;4686;44.496;11.324;2023-04-01T06:50:56;6.40;;;5.90;;
9294;SDS011;4686;44.496;11.324;2023-04-01T06:53:27;7.87;;;6.57;;
9294;SDS011;4686;44.496;11.324;2023-04-01T06:55:57;9.47;;;6.33;;
9294;SDS011;4686;44.496;11.324;2023-04-01T06:58:29;20.33;;;13.07;;
9294;SDS011;4686;44.496;11.324;2023-04-01T07:00:58;21.83;;;16.67;;
9294;SDS011;4686;44.496;11.324;2023-04-01T07:03:30;21.93;;;17.57;;
9294;SDS011;4686;44.496;11.324;2023-04-01T07:06:00;18.23;;;13.87;;
9294;SDS011;4686;44.496;11.324;2023-04-01T07:08:27;14.80;;;11.40;;
9294;SDS011;4686;44.496;11.324;2023-04-01T07:10:56;14.60;;;9.37;;
9294;SDS011;4686;44.496;11.324;2023-04-01T07:13:26;13.30;;;9.90;;
9294;SDS011;4686;44.496;11.324;2023-04-01T07:15:58;10.27;;;9.17;;
9294;SDS011;4686;44.496;11.324;2023-04-01T07:18:29;10.47;;;7.53;;
9294;SDS011;4686;44.496;11.324;2023-04-01T07:20:57;9.00;;;8.10;;
9294;SDS011;4686;44.496;11.324;2023-04-01T07:23:26;11.33;;;9.47;;
9294;SDS011;4686;44.496;11.324;2023-04-01T07:25:55;14.00;;;9.57;;
9294;SDS011;4686;44.496;11.324;2023-04-01T07:28:26;10.10;;;8.67;;
9294;SDS011;4686;44.496;11.324;2023-04-01T07:31:00;12.43;;;9.33;;
9294;SDS011;4686;44.496;11.324;2023-04-01T07:33:30;13.50;;;11.77;;
9294;SDS011;4686;44.496;11.324;2023-04-01T07:36:01;16.73;;;11.90;;
9294;SDS011;4686;44.496;11.324;2023-04-01T07:38:32;31.77;;;21.60;;
9294;SDS011;4686;44.496;11.324;2023-04-01T07:41:03;23.07;;;17.70;;
9294;SDS011;4686;44.496;11.324;2023-04-01T07:43:39;17.83;;;14.97;;
9294;SDS011;4686;44.496;11.324;2023-04-01T07:46:11;23.13;;;19.13;;
9294;SDS011;4686;44.496;11.324;2023-04-01T07:48:42;26.20;;;19.77;;
9294;SDS011;4686;44.496;11.324;2023-04-01T07:51:15;25.40;;;20.70;;
9294;SDS011;4686;44.496;11.324;2023-04-01T07:53:46;24.57;;;20.10;;
9294;SDS011;4686;44.496;11.324;2023-04-01T07:56:15;37.83;;;27.40;;
9294;SDS011;4686;44.496;11.324;2023-04-01T07:58:48;29.63;;;22.10;;
9294;SDS011;4686;44.496;11.324;2023-04-01T08:01:22;22.87;;;19.17;;
9294;SDS011;4686;44.496;11.324;2023-04-01T08:03:55;27.00;;;21.40;;
9294;SDS011;4686;44.496;11.324;2023-04-01T08:06:27;22.83;;;19.50;;
9294;SDS011;4686;44.496;11.324;2023-04-01T08:08:59;35.20;;;23.27;;
9294;SDS011;4686;44.496;11.324;2023-04-01T08:11:32;27.20;;;21.57;;
9294;SDS011;4686;44.496;11.324;2023-04-01T08:14:04;27.90;;;21.33;;
9294;SDS011;4686;44.496;11.324;2023-04-01T08:16:37;21.60;;;17.87;;
9294;SDS011;4686;44.496;11.324;2023-04-01T08:19:11;26.13;;;18.20;;
9294;SDS011;4686;44.496;11.324;2023-04-01T08:21:41;27.50;;;20.30;;
9294;SDS011;4686;44.496;11.324;2023-04-01T08:24:11;27.43;;;21.57;;
9294;SDS011;4686;44.496;11.324;2023-04-01T08:26:44;27.30;;;20.07;;
9294;SDS011;4686;44.496;11.324;2023-04-01T08:29:16;23.33;;;18.60;;
9294;SDS011;4686;44.496;11.324;2023-04-01T08:31:48;20.97;;;17.73;;
9294;SDS011;4686;44.496;11.324;2023-04-01T08:34:19;19.07;;;16.90;;
9294;SDS011;4686;44.496;11.324;2023-04-01T08:36:47;32.33;;;26.73;;
9294;SDS011;4686;44.496;11.324;2023-04-01T08:39:22;19.37;;;17.33;;
9294;SDS011;4686;44.496;11.324;2023-04-01T08:53:11;22.20;;;19.07;;
9294;SDS011;4686;44.496;11.324;2023-04-01T08:55:47;26.03;;;19.00;;
9294;SDS011;4686;44.496;11.324;2023-04-01T09:01:09;28.57;;;21.23;;
9294;SDS011;4686;44.496;11.324;2023-04-01T09:03:41;25.00;;;19.77;;
9294;SDS011;4686;44.496;11.324;2023-04-01T09:12:01;21.23;;;17.27;;
9294;SDS011;4686;44.496;11.324;2023-04-01T09:20:14;19.97;;;15.90;;
9294;SDS011;4686;44.496;11.324;2023-04-01T09:22:48;19.70;;;16.50;;
9294;SDS011;4686;44.496;11.324;2023-04-01T09:28:06;23.70;;;18.50;;
9294;SDS011;4686;44.496;11.324;2023-04-01T09:30:40;24.13;;;18.53;;
9294;SDS011;4686;44.496;11.324;2023-04-01T09:35:56;16.90;;;15.10;;
9294;SDS011;4686;44.496;11.324;2023-04-01T09:38:28;20.37;;;16.70;;
9294;SDS011;4686;44.496;11.324;2023-04-01T09:40:56;23.23;;;16.43;;
9294;SDS011;4686;44.496;11.324;2023-04-01T09:43:29;17.80;;;15.90;;
9294;SDS011;4686;44.496;11.324;2023-04-01T09:46:07;17.43;;;14.60;;
9294;SDS011;4686;44.496;11.324;2023-04-01T09:48:53;20.50;;;15.90;;
9294;SDS011;4686;44.496;11.324;2023-04-01T09:51:30;14.40;;;12.23;;
9294;SDS011;4686;44.496;11.324;2023-04-01T09:54:03;17.47;;;15.17;;
9294;SDS011;4686;44.496;11.324;2023-04-01T09:59:34;14.13;;;12.20;;
9294;SDS011;4686;44.496;11.324;2023-04-01T10:02:24;15.57;;;13.13;;
9294;SDS011;4686;44.496;11.324;2023-04-01T10:05:10;16.60;;;12.93;;
9294;SDS011;4686;44.496;11.324;2023-04-01T10:08:01;13.57;;;12.17;;
9294;SDS011;4686;44.496;11.324;2023-04-01T10:13:39;16.97;;;13.00;;
9294;SDS011;4686;44.496;11.324;2023-04-01T10:16:27;20.70;;;17.30;;
9294;SDS011;4686;44.496;11.324;2023-04-01T10:19:10;20.07;;;17.97;;
9294;SDS011;4686;44.496;11.324;2023-04-01T10:21:49;19.37;;;16.10;;
9294;SDS011;4686;44.496;11.324;2023-04-01T10:24:28;11.93;;;10.70;;
9294;SDS011;4686;44.496;11.324;2023-04-01T10:27:04;13.40;;;12.10;;
9294;SDS011;4686;44.496;11.324;2023-04-01T10:32:21;15.80;;;12.27;;
9294;SDS011;4686;44.496;11.324;2023-04-01T10:34:56;10.87;;;9.50;;
9294;SDS011;4686;44.496;11.324;2023-04-01T10:37:34;12.07;;;9.07;;
9294;SDS011;4686;44.496;11.324;2023-04-01T10:43:00;17.10;;;13.43;;
9294;SDS011;4686;44.496;11.324;2023-04-01T10:48:24;13.53;;;10.73;;
9294;SDS011;4686;44.496;11.324;2023-04-01T10:51:04;14.00;;;10.53;;
9294;SDS011;4686;44.496;11.324;2023-04-01T10:53:38;12.13;;;10.10;;
9294;SDS011;4686;44.496;11.324;2023-04-01T10:59:02;11.97;;;10.77;;
9294;SDS011;4686;44.496;11.324;2023-04-01T11:07:18;27.80;;;17.80;;
9294;SDS011;4686;44.496;11.324;2023-04-01T11:09:56;14.40;;;9.53;;
9294;SDS011;4686;44.496;11.324;2023-04-01T11:15:48;43.63;;;34.80;;
9294;SDS011;4686;44.496;11.324;2023-04-01T11:18:29;22.07;;;17.67;;
9294;SDS011;4686;44.496;11.324;2023-04-01T11:21:07;11.07;;;9.87;;
9294;SDS011;4686;44.496;11.324;2023-04-01T11:23:50;12.23;;;10.93;;
9294;SDS011;4686;44.496;11.324;2023-04-01T11:26:21;11.83;;;10.63;;
9294;SDS011;4686;44.496;11.324;2023-04-01T11:29:01;10.40;;;9.40;;
9294;SDS011;4686;44.496;11.324;2023-04-01T11:31:34;10.23;;;9.20;;
9294;SDS011;4686;44.496;11.324;2023-04-01T11:34:05;7.97;;;7.17;;
9294;SDS011;4686;44.496;11.324;2023-04-01T11:36:37;8.30;;;7.50;;
9294;SDS011;4686;44.496;11.324;2023-04-01T11:39:13;9.70;;;8.57;;
9294;SDS011;4686;44.496;11.324;2023-04-01T11:41:49;9.90;;;8.43;;
9294;SDS011;4686;44.496;11.324;2023-04-01T11:44:19;8.27;;;7.47;;
9294;SDS011;4686;44.496;11.324;2023-04-01T11:47:01;18.03;;;14.73;;
9294;SDS011;4686;44.496;11.324;2023-04-01T11:49:36;13.90;;;9.30;;
9294;SDS011;4686;44.496;11.324;2023-04-01T11:52:21;9.90;;;7.60;;
9294;SDS011;4686;44.496;11.324;2023-04-01T11:54:56;13.50;;;8.03;;
9294;SDS011;4686;44.496;11.324;2023-04-01T11:57:40;8.87;;;7.37;;
9294;SDS011;4686;44.496;11.324;2023-04-01T12:00:14;11.63;;;9.80;;
9294;SDS011;4686;44.496;11.324;2023-04-01T12:02:47;5.20;;;4.70;;
9294;SDS011;4686;44.496;11.324;2023-04-01T12:08:15;12.33;;;7.37;;
9294;SDS011;4686;44.496;11.324;2023-04-01T12:10:51;10.20;;;7.27;;
9294;SDS011;4686;44.496;11.324;2023-04-01T12:13:28;20.80;;;16.73;;
9294;SDS011;4686;44.496;11.324;2023-04-01T12:16:03;17.27;;;12.07;;
9294;SDS011;4686;44.496;11.324;2023-04-01T12:18:33;9.10;;;7.27;;
9294;SDS011;4686;44.496;11.324;2023-04-01T12:21:03;39.00;;;29.33;;
9294;SDS011;4686;44.496;11.324;2023-04-01T12:26:49;57.00;;;40.50;;
9294;SDS011;4686;44.496;11.324;2023-04-01T12:29:26;6.57;;;5.97;;
9294;SDS011;4686;44.496;11.324;2023-04-01T12:32:02;8.20;;;5.50;;
9294;SDS011;4686;44.496;11.324;2023-04-01T12:37:29;39.70;;;28.97;;
9294;SDS011;4686;44.496;11.324;2023-04-01T12:40:09;6.70;;;5.77;;
9294;SDS011;4686;44.496;11.324;2023-04-01T12:42:47;19.37;;;13.67;;
9294;SDS011;4686;44.496;11.324;2023-04-01T12:45:35;62.07;;;44.43;;
9294;SDS011;4686;44.496;11.324;2023-04-01T12:48:08;20.53;;;16.30;;
9294;SDS011;4686;44.496;11.324;2023-04-01T12:50:40;7.00;;;6.30;;
9294;SDS011;4686;44.496;11.324;2023-04-01T12:53:12;5.77;;;5.23;;
9294;SDS011;4686;44.496;11.324;2023-04-01T12:55:45;5.33;;;4.83;;
9294;SDS011;4686;44.496;11.324;2023-04-01T13:01:18;25.87;;;18.00;;
9294;SDS011;4686;44.496;11.324;2023-04-01T13:03:54;18.63;;;15.10;;
9294;SDS011;4686;44.496;11.324;2023-04-01T13:06:25;21.57;;;13.60;;
9294;SDS011;4686;44.496;11.324;2023-04-01T13:08:56;6.70;;;6.20;;
9294;SDS011;4686;44.496;11.324;2023-04-01T13:11:28;20.03;;;15.60;;
9294;SDS011;4686;44.496;11.324;2023-04-01T13:14:03;8.30;;;7.50;;
9294;SDS011;4686;44.496;11.324;2023-04-01T13:16:39;4.50;;;4.20;;
9294;SDS011;4686;44.496;11.324;2023-04-01T13:19:08;32.67;;;23.57;;
9294;SDS011;4686;44.496;11.324;2023-04-01T13:21:41;4.80;;;4.40;;
9294;SDS011;4686;44.496;11.324;2023-04-01T13:24:13;6.17;;;4.80;;
9294;SDS011;4686;44.496;11.324;2023-04-01T13:26:48;26.10;;;20.87;;
9294;SDS011;4686;44.496;11.324;2023-04-01T13:29:20;7.20;;;5.10;;
9294;SDS011;4686;44.496;11.324;2023-04-01T13:31:59;4.43;;;4.10;;
9294;SDS011;4686;44.496;11.324;2023-04-01T13:34:34;4.03;;;3.73;;
9294;SDS011;4686;44.496;11.324;2023-04-01T13:37:07;5.47;;;4.97;;
9294;SDS011;4686;44.496;11.324;2023-04-01T13:42:24;13.70;;;11.30;;
9294;SDS011;4686;44.496;11.324;2023-04-01T13:44:54;4.60;;;4.30;;
9294;SDS011;4686;44.496;11.324;2023-04-01T13:47:42;5.13;;;4.73;;
9294;SDS011;4686;44.496;11.324;2023-04-01T13:50:23;3.83;;;3.53;;
9294;SDS011;4686;44.496;11.324;2023-04-01T13:52:55;7.07;;;6.47;;
9294;SDS011;4686;44.496;11.324;2023-04-01T13:55:30;9.90;;;6.90;;
9294;SDS011;4686;44.496;11.324;2023-04-01T13:58:07;3.93;;;3.63;;
9294;SDS011;4686;44.496;11.324;2023-04-01T14:00:46;6.63;;;5.07;;
9294;SDS011;4686;44.496;11.324;2023-04-01T14:03:22;2.40;;;2.20;;
9294;SDS011;4686;44.496;11.324;2023-04-01T14:05:56;7.73;;;5.83;;
9294;SDS011;4686;44.496;11.324;2023-04-01T14:08:35;2.50;;;2.23;;
9294;SDS011;4686;44.496;11.324;2023-04-01T14:11:10;6.37;;;5.30;;
9294;SDS011;4686;44.496;11.324;2023-04-01T14:13:40;3.17;;;2.87;;
9294;SDS011;4686;44.496;11.324;2023-04-01T14:16:14;2.30;;;2.20;;
9294;SDS011;4686;44.496;11.324;2023-04-01T14:18:53;9.30;;;6.90;;
9294;SDS011;4686;44.496;11.324;2023-04-01T14:21:27;2.97;;;2.77;;
9294;SDS011;4686;44.496;11.324;2023-04-01T14:24:03;3.40;;;3.20;;
9294;SDS011;4686;44.496;11.324;2023-04-01T14:29:21;3.13;;;2.83;;
9294;SDS011;4686;44.496;11.324;2023-04-01T14:31:59;4.20;;;3.80;;
9294;SDS011;4686;44.496;11.324;2023-04-01T14:34:37;3.20;;;2.73;;
9294;SDS011;4686;44.496;11.324;2023-04-01T14:37:19;5.47;;;5.03;;
9294;SDS011;4686;44.496;11.324;2023-04-01T14:39:55;4.90;;;4.50;;
9294;SDS011;4686;44.496;11.324;2023-04-01T14:42:49;4.23;;;3.90;;
9294;SDS011;4686;44.496;11.324;2023-04-01T14:48:09;3.73;;;3.43;;
9294;SDS011;4686;44.496;11.324;2023-04-01T14:50:44;3.07;;;2.87;;
9294;SDS011;4686;44.496;11.324;2023-04-01T14:53:23;5.27;;;3.37;;
9294;SDS011;4686;44.496;11.324;2023-04-01T14:55:53;5.20;;;4.80;;
9294;SDS011;4686;44.496;11.324;2023-04-01T14:58:21;3.57;;;3.37;;
9294;SDS011;4686;44.496;11.324;2023-04-01T15:00:53;5.73;;;3.90;;
9294;SDS011;4686;44.496;11.324;2023-04-01T15:03:25;6.17;;;4.10;;
9294;SDS011;4686;44.496;11.324;2023-04-01T15:05:56;4.83;;;4.20;;
9294;SDS011;4686;44.496;11.324;2023-04-01T15:08:27;4.90;;;3.87;;
9294;SDS011;4686;44.496;11.324;2023-04-01T15:13:51;3.90;;;3.60;;
9294;SDS011;4686;44.496;11.324;2023-04-01T15:16:23;49.03;;;39.83;;
9294;SDS011;4686;44.496;11.324;2023-04-01T15:18:53;54.40;;;42.63;;
9294;SDS011;4686;44.496;11.324;2023-04-01T15:24:12;23.17;;;15.53;;
9294;SDS011;4686;44.496;11.324;2023-04-01T15:26:50;14.93;;;13.30;;
9294;SDS011;4686;44.496;11.324;2023-04-01T15:32:08;7.33;;;6.63;;
9294;SDS011;4686;44.496;11.324;2023-04-01T15:34:43;5.87;;;5.37;;
9294;SDS011;4686;44.496;11.324;2023-04-01T15:37:17;30.50;;;23.63;;
9294;SDS011;4686;44.496;11.324;2023-04-01T15:39:54;5.20;;;3.90;;
9294;SDS011;4686;44.496;11.324;2023-04-01T15:42:32;4.77;;;4.27;;
9294;SDS011;4686;44.496;11.324;2023-04-01T15:45:08;6.73;;;5.10;;
9294;SDS011;4686;44.496;11.324;2023-04-01T15:47:39;6.03;;;3.30;;
9294;SDS011;4686;44.496;11.324;2023-04-01T15:52:49;5.60;;;4.10;;
9294;SDS011;4686;44.496;11.324;2023-04-01T15:55:25;6.70;;;4.60;;
9294;SDS011;4686;44.496;11.324;2023-04-01T15:58:00;7.63;;;3.63;;
9294;SDS011;4686;44.496;11.324;2023-04-01T16:00:31;7.07;;;3.63;;
9294;SDS011;4686;44.496;11.324;2023-04-01T16:03:10;8.90;;;3.53;;
9294;SDS011;4686;44.496;11.324;2023-04-01T16:05:42;6.90;;;4.10;;
9294;SDS011;4686;44.496;11.324;2023-04-01T16:08:15;4.97;;;3.90;;
9294;SDS011;4686;44.496;11.324;2023-04-01T16:10:50;6.20;;;3.90;;
9294;SDS011;4686;44.496;11.324;2023-04-01T16:13:28;7.40;;;4.20;;
9294;SDS011;4686;44.496;11.324;2023-04-01T16:16:00;17.30;;;13.00;;
9294;SDS011;4686;44.496;11.324;2023-04-01T16:18:48;6.17;;;3.77;;
9294;SDS011;4686;44.496;11.324;2023-04-01T16:21:22;5.10;;;3.37;;
9294;SDS011;4686;44.496;11.324;2023-04-01T16:23:51;8.93;;;6.50;;
9294;SDS011;4686;44.496;11.324;2023-04-01T16:26:24;6.70;;;3.93;;
9294;SDS011;4686;44.496;11.324;2023-04-01T16:28:53;9.50;;;3.47;;
9294;SDS011;4686;44.496;11.324;2023-04-01T16:31:30;10.63;;;4.07;;
9294;SDS011;4686;44.496;11.324;2023-04-01T16:34:01;7.80;;;5.03;;
9294;SDS011;4686;44.496;11.324;2023-04-01T16:36:33;22.07;;;16.20;;
9294;SDS011;4686;44.496;11.324;2023-04-01T16:39:08;11.40;;;8.30;;
9294;SDS011;4686;44.496;11.324;2023-04-01T16:41:41;22.30;;;16.37;;
9294;SDS011;4686;44.496;11.324;2023-04-01T16:44:18;7.10;;;4.60;;